Time,TemperatureF,DewpointF,PressureIn,WindDirection,WindDirectionDegrees,WindSpeedMPH,WindSpeedGustMPH,Humidity,HourlyPrecipIn,Conditions,Clouds,dailyrainin,SolarRadiationWatts/m^2,SoftwareType,DateUTC
2013-04-21 00:01:00,42.0,41.0,-100.00,North,360,0.0,3.0,98,0.00,,,0.10,0.000000,,2013-04-21 07:01:00,
2013-04-21 00:11:00,42.0,41.0,-100.00,North,360,0.0,3.0,98,0.00,,,0.10,0.000000,,2013-04-21 07:11:00,
2013-04-21 00:21:00,42.0,41.0,-100.00,North,360,0.0,3.0,98,0.00,,,0.10,0.000000,,2013-04-21 07:21:00,
2013-04-21 00:31:00,42.0,41.0,-100.00,North,360,0.0,3.0,98,0.00,,,0.10,0.000000,,2013-04-21 07:31:00,
2013-04-21 00:52:00,42.0,42.0,-100.00,NE,40,0.0,3.0,99,0.00,,,0.09,0.000000,,2013-04-21 07:52:00,
2013-04-21 01:01:00,42.0,42.0,-100.00,NE,40,0.0,3.0,99,0.00,,,0.09,0.000000,,2013-04-21 08:01:00,
2013-04-21 01:12:00,42.0,42.0,-100.00,NE,40,0.0,3.0,99,0.00,,,0.09,0.000000,,2013-04-21 08:12:00,
2013-04-21 01:21:00,42.0,42.0,-100.00,NE,40,0.0,3.0,99,0.00,,,0.09,0.000000,,2013-04-21 08:21:00,
2013-04-21 01:32:00,42.0,42.0,-100.00,NE,40,0.0,3.0,99,0.00,,,0.09,0.000000,,2013-04-21 08:32:00,
2013-04-21 01:52:00,42.0,42.0,-100.00,ENE,57,0.0,1.0,99,0.00,,,0.08,0.000000,,2013-04-21 08:52:00,
2013-04-21 02:01:00,42.0,42.0,-100.00,ENE,57,0.0,1.0,99,0.00,,,0.08,0.000000,,2013-04-21 09:01:00,
2013-04-21 02:11:00,42.0,42.0,-100.00,ENE,57,0.0,1.0,99,0.00,,,0.08,0.000000,,2013-04-21 09:11:00,
2013-04-21 02:21:00,42.0,42.0,-100.00,ENE,57,0.0,1.0,99,0.00,,,0.08,0.000000,,2013-04-21 09:21:00,
2013-04-21 02:32:00,42.0,42.0,-100.00,ENE,57,0.0,1.0,99,0.00,,,0.08,0.000000,,2013-04-21 09:32:00,
2013-04-21 02:53:00,42.0,42.0,-100.00,ESE,107,0.0,2.0,99,0.00,,,0.08,0.000000,,2013-04-21 09:53:00,
2013-04-21 03:02:00,42.0,42.0,-100.00,ESE,107,0.0,2.0,99,0.00,,,0.08,0.000000,,2013-04-21 10:02:00,
2013-04-21 03:12:00,42.0,42.0,-100.00,ESE,107,0.0,2.0,99,0.00,,,0.08,0.000000,,2013-04-21 10:12:00,
2013-04-21 03:22:00,42.0,42.0,-100.00,ESE,107,0.0,2.0,99,0.00,,,0.08,0.000000,,2013-04-21 10:22:00,
2013-04-21 03:32:00,42.0,42.0,-100.00,ESE,107,0.0,2.0,99,0.00,,,0.08,0.000000,,2013-04-21 10:32:00,
2013-04-21 03:33:00,42.0,42.0,-100.00,ESE,108,0.0,2.0,99,0.00,,,0.07,0.000000,,2013-04-21 10:33:00,
2013-04-21 03:52:00,42.0,42.0,-100.00,ESE,108,0.0,2.0,99,0.00,,,0.07,0.000000,,2013-04-21 10:52:00,
2013-04-21 04:02:00,42.0,42.0,-100.00,ESE,108,0.0,2.0,99,0.00,,,0.07,0.000000,,2013-04-21 11:02:00,
2013-04-21 04:12:00,42.0,42.0,-100.00,ESE,108,0.0,2.0,99,0.00,,,0.07,0.000000,,2013-04-21 11:12:00,
2013-04-21 04:22:00,42.0,42.0,-100.00,ESE,108,0.0,2.0,99,0.00,,,0.07,0.000000,,2013-04-21 11:22:00,
2013-04-21 04:52:00,42.0,42.0,-100.00,SE,128,0.0,3.0,99,0.04,,,0.10,0.000000,,2013-04-21 11:52:00,
2013-04-21 05:02:00,42.0,42.0,-100.00,SE,128,0.0,3.0,99,0.04,,,0.10,0.000000,,2013-04-21 12:02:00,
2013-04-21 05:12:00,42.0,42.0,-100.00,SE,128,0.0,3.0,99,0.04,,,0.10,0.000000,,2013-04-21 12:12:00,
2013-04-21 05:22:00,42.0,42.0,-100.00,SE,128,0.0,3.0,99,0.04,,,0.10,0.000000,,2013-04-21 12:22:00,
2013-04-21 05:31:00,42.0,42.0,-100.00,SE,128,0.0,3.0,99,0.04,,,0.10,0.000000,,2013-04-21 12:31:00,
2013-04-21 05:52:00,42.0,42.0,-100.00,ESE,117,0.0,2.0,99,0.00,,,0.10,0.000000,,2013-04-21 12:52:00,
2013-04-21 06:01:00,42.0,42.0,-100.00,ESE,117,0.0,2.0,99,0.00,,,0.10,0.000000,,2013-04-21 13:01:00,
2013-04-21 06:11:00,42.0,42.0,-100.00,ESE,117,0.0,2.0,99,0.00,,,0.10,0.000000,,2013-04-21 13:11:00,
2013-04-21 06:21:00,42.0,42.0,-100.00,ESE,117,0.0,2.0,99,0.00,,,0.10,0.000000,,2013-04-21 13:21:00,
2013-04-21 06:32:00,42.0,42.0,-100.00,ESE,117,0.0,2.0,99,0.00,,,0.10,0.000000,,2013-04-21 13:32:00,
2013-04-21 06:52:00,42.0,42.0,-100.00,SE,127,0.0,1.0,99,0.00,,,0.10,2.000000,,2013-04-21 13:52:00,
2013-04-21 07:01:00,42.0,42.0,-100.00,SE,127,0.0,1.0,99,0.00,,,0.10,2.000000,,2013-04-21 14:01:00,
2013-04-21 07:11:00,42.0,42.0,-100.00,SE,127,0.0,1.0,99,0.00,,,0.10,2.000000,,2013-04-21 14:11:00,
2013-04-21 07:21:00,42.0,42.0,-100.00,SE,127,0.0,1.0,99,0.00,,,0.10,2.000000,,2013-04-21 14:21:00,
2013-04-21 07:31:00,42.0,42.0,-100.00,SE,127,0.0,1.0,99,0.00,,,0.10,2.000000,,2013-04-21 14:31:00,
2013-04-21 07:33:00,43.0,42.0,-100.00,SE,133,0.0,2.0,98,0.00,,,0.09,47.000000,,2013-04-21 14:33:00,
2013-04-21 07:52:00,43.0,42.0,-100.00,SE,133,0.0,2.0,98,0.00,,,0.09,47.000000,,2013-04-21 14:52:00,
2013-04-21 08:02:00,43.0,42.0,-100.00,SE,133,0.0,2.0,98,0.00,,,0.09,47.000000,,2013-04-21 15:02:00,
2013-04-21 08:11:00,43.0,42.0,-100.00,SE,133,0.0,2.0,98,0.00,,,0.09,47.000000,,2013-04-21 15:11:00,
2013-04-21 08:22:00,43.0,42.0,-100.00,SE,133,0.0,2.0,98,0.00,,,0.09,47.000000,,2013-04-21 15:22:00,
2013-04-21 08:53:00,45.0,43.0,-100.00,East,101,0.0,2.0,92,0.00,,,0.09,118.000000,,2013-04-21 15:53:00,
2013-04-21 09:03:00,45.0,43.0,-100.00,East,101,0.0,2.0,92,0.00,,,0.09,118.000000,,2013-04-21 16:03:00,
2013-04-21 09:12:00,45.0,43.0,-100.00,East,101,0.0,2.0,92,0.00,,,0.09,118.000000,,2013-04-21 16:12:00,
2013-04-21 09:22:00,45.0,43.0,-100.00,East,101,0.0,2.0,92,0.00,,,0.09,118.000000,,2013-04-21 16:22:00,
2013-04-21 09:32:00,45.0,43.0,-100.00,East,101,0.0,2.0,92,0.00,,,0.09,118.000000,,2013-04-21 16:32:00,
2013-04-21 09:52:00,49.0,42.0,-100.00,WSW,254,1.0,4.0,77,0.00,,,0.09,335.000000,,2013-04-21 16:52:00,
2013-04-21 10:02:00,49.0,42.0,-100.00,WSW,254,1.0,4.0,77,0.00,,,0.09,335.000000,,2013-04-21 17:02:00,
2013-04-21 10:12:00,49.0,42.0,-100.00,WSW,254,1.0,4.0,77,0.00,,,0.09,335.000000,,2013-04-21 17:12:00,
2013-04-21 10:22:00,49.0,42.0,-100.00,WSW,254,1.0,4.0,77,0.00,,,0.09,335.000000,,2013-04-21 17:22:00,
2013-04-21 10:32:00,49.0,42.0,-100.00,WSW,254,1.0,4.0,77,0.00,,,0.09,335.000000,,2013-04-21 17:32:00,
2013-04-21 10:52:00,47.0,41.0,-100.00,NW,317,1.0,4.0,80,0.00,,,0.09,196.000000,,2013-04-21 17:52:00,
2013-04-21 11:02:00,47.0,41.0,-100.00,NW,317,1.0,4.0,80,0.00,,,0.09,196.000000,,2013-04-21 18:02:00,
2013-04-21 11:11:00,47.0,41.0,-100.00,NW,317,1.0,4.0,80,0.00,,,0.09,196.000000,,2013-04-21 18:11:00,
2013-04-21 11:21:00,47.0,41.0,-100.00,NW,317,1.0,4.0,80,0.00,,,0.09,196.000000,,2013-04-21 18:21:00,
2013-04-21 11:32:00,47.0,41.0,-100.00,NW,317,1.0,4.0,80,0.00,,,0.09,196.000000,,2013-04-21 18:32:00,
2013-04-21 11:52:00,50.0,42.0,-100.00,West,272,1.0,8.0,75,0.00,,,0.09,350.000000,,2013-04-21 18:52:00,
2013-04-21 12:02:00,50.0,42.0,-100.00,West,272,1.0,8.0,75,0.00,,,0.09,350.000000,,2013-04-21 19:02:00,
2013-04-21 12:11:00,50.0,42.0,-100.00,West,272,1.0,8.0,75,0.00,,,0.09,350.000000,,2013-04-21 19:11:00,
2013-04-21 12:21:00,50.0,42.0,-100.00,West,272,1.0,8.0,75,0.00,,,0.09,350.000000,,2013-04-21 19:21:00,
2013-04-21 12:31:00,50.0,42.0,-100.00,West,272,1.0,8.0,75,0.00,,,0.09,350.000000,,2013-04-21 19:31:00,
2013-04-21 12:52:00,51.0,44.0,-100.00,SSE,154,1.0,8.0,77,0.00,,,0.09,429.000000,,2013-04-21 19:52:00,
2013-04-21 13:01:00,51.0,44.0,-100.00,SSE,154,1.0,8.0,77,0.00,,,0.09,429.000000,,2013-04-21 20:01:00,
2013-04-21 13:11:00,51.0,44.0,-100.00,SSE,154,1.0,8.0,77,0.00,,,0.09,429.000000,,2013-04-21 20:11:00,
2013-04-21 13:22:00,51.0,44.0,-100.00,SSE,154,1.0,8.0,77,0.00,,,0.09,429.000000,,2013-04-21 20:22:00,
2013-04-21 13:31:00,51.0,44.0,-100.00,SSE,154,1.0,8.0,77,0.00,,,0.09,429.000000,,2013-04-21 20:31:00,
2013-04-21 13:52:00,54.0,43.0,-100.00,WNW,287,4.0,10.0,65,0.00,,,0.09,438.000000,,2013-04-21 20:52:00,
2013-04-21 14:02:00,54.0,43.0,-100.00,WNW,287,4.0,10.0,65,0.00,,,0.09,438.000000,,2013-04-21 21:02:00,
2013-04-21 14:12:00,54.0,43.0,-100.00,WNW,287,4.0,10.0,65,0.00,,,0.09,438.000000,,2013-04-21 21:12:00,
2013-04-21 14:21:00,54.0,43.0,-100.00,WNW,287,4.0,10.0,65,0.00,,,0.09,438.000000,,2013-04-21 21:21:00,
2013-04-21 14:32:00,54.0,43.0,-100.00,WNW,287,4.0,10.0,65,0.00,,,0.09,438.000000,,2013-04-21 21:32:00,
2013-04-21 14:53:00,51.0,42.0,-100.00,West,275,3.0,11.0,70,0.00,,,0.09,393.000000,,2013-04-21 21:53:00,
2013-04-21 15:02:00,51.0,42.0,-100.00,West,275,3.0,11.0,70,0.00,,,0.09,393.000000,,2013-04-21 22:02:00,
2013-04-21 15:12:00,51.0,42.0,-100.00,West,275,3.0,11.0,70,0.00,,,0.09,393.000000,,2013-04-21 22:12:00,
2013-04-21 15:22:00,51.0,42.0,-100.00,West,275,3.0,11.0,70,0.00,,,0.09,393.000000,,2013-04-21 22:22:00,
2013-04-21 15:32:00,51.0,42.0,-100.00,West,275,3.0,11.0,70,0.00,,,0.09,393.000000,,2013-04-21 22:32:00,
2013-04-21 15:52:00,52.0,41.0,-100.00,NW,310,4.0,11.0,67,0.00,,,0.09,454.000000,,2013-04-21 22:52:00,
2013-04-21 16:02:00,52.0,41.0,-100.00,NW,310,4.0,11.0,67,0.00,,,0.09,454.000000,,2013-04-21 23:02:00,
2013-04-21 16:12:00,52.0,41.0,-100.00,NW,310,4.0,11.0,67,0.00,,,0.09,454.000000,,2013-04-21 23:12:00,
2013-04-21 16:22:00,52.0,41.0,-100.00,NW,310,4.0,11.0,67,0.00,,,0.09,454.000000,,2013-04-21 23:22:00,
2013-04-21 16:32:00,52.0,41.0,-100.00,NW,310,4.0,11.0,67,0.00,,,0.09,454.000000,,2013-04-21 23:32:00,
2013-04-21 16:52:00,52.0,42.0,-100.00,West,278,4.0,14.0,69,0.00,,,0.07,466.000000,,2013-04-21 23:52:00,
2013-04-21 17:01:00,52.0,42.0,-100.00,West,278,4.0,14.0,69,0.00,,,0.07,466.000000,,2013-04-22 00:01:00,
2013-04-21 17:11:00,52.0,42.0,-100.00,West,278,4.0,14.0,69,0.00,,,0.07,466.000000,,2013-04-22 00:11:00,
2013-04-21 17:21:00,52.0,42.0,-100.00,West,278,4.0,14.0,69,0.00,,,0.07,466.000000,,2013-04-22 00:21:00,
2013-04-21 17:31:00,52.0,42.0,-100.00,West,278,4.0,14.0,69,0.00,,,0.07,466.000000,,2013-04-22 00:31:00,
2013-04-21 17:52:00,50.0,42.0,-100.00,WNW,294,3.0,9.0,73,0.00,,,0.06,225.000000,,2013-04-22 00:52:00,
2013-04-21 18:01:00,50.0,42.0,-100.00,WNW,294,3.0,9.0,73,0.00,,,0.06,225.000000,,2013-04-22 01:01:00,
2013-04-21 18:11:00,50.0,42.0,-100.00,WNW,294,3.0,9.0,73,0.00,,,0.06,225.000000,,2013-04-22 01:11:00,
2013-04-21 18:21:00,50.0,42.0,-100.00,WNW,294,3.0,9.0,73,0.00,,,0.06,225.000000,,2013-04-22 01:21:00,
2013-04-21 18:32:00,50.0,42.0,-100.00,WNW,294,3.0,9.0,73,0.00,,,0.06,225.000000,,2013-04-22 01:32:00,
2013-04-21 18:52:00,49.0,43.0,-100.00,NNE,14,3.0,10.0,81,0.00,,,0.06,183.000000,,2013-04-22 01:52:00,
2013-04-21 19:01:00,49.0,43.0,-100.00,NNE,14,3.0,10.0,81,0.00,,,0.06,183.000000,,2013-04-22 02:01:00,
2013-04-21 19:11:00,49.0,43.0,-100.00,NNE,14,3.0,10.0,81,0.00,,,0.06,183.000000,,2013-04-22 02:11:00,
2013-04-21 19:21:00,49.0,43.0,-100.00,NNE,14,3.0,10.0,81,0.00,,,0.06,183.000000,,2013-04-22 02:21:00,
2013-04-21 19:31:00,49.0,43.0,-100.00,NNE,14,3.0,10.0,81,0.00,,,0.06,183.000000,,2013-04-22 02:31:00,
2013-04-21 19:33:00,45.0,41.0,-100.00,North,8,2.0,7.0,87,0.00,,,0.05,49.000000,,2013-04-22 02:33:00,
2013-04-21 19:52:00,45.0,41.0,-100.00,North,8,2.0,7.0,87,0.00,,,0.05,49.000000,,2013-04-22 02:52:00,
2013-04-21 20:02:00,45.0,41.0,-100.00,North,8,2.0,7.0,87,0.00,,,0.05,49.000000,,2013-04-22 03:02:00,
2013-04-21 20:11:00,45.0,41.0,-100.00,North,8,2.0,7.0,87,0.00,,,0.05,49.000000,,2013-04-22 03:11:00,
2013-04-21 20:22:00,45.0,41.0,-100.00,North,8,2.0,7.0,87,0.00,,,0.05,49.000000,,2013-04-22 03:22:00,
2013-04-21 20:52:00,42.0,41.0,-100.00,NNE,29,0.0,3.0,97,0.00,,,0.05,11.000000,,2013-04-22 03:52:00,
2013-04-21 21:02:00,42.0,41.0,-100.00,NNE,29,0.0,3.0,97,0.00,,,0.05,11.000000,,2013-04-22 04:02:00,
2013-04-21 21:12:00,42.0,41.0,-100.00,NNE,29,0.0,3.0,97,0.00,,,0.05,11.000000,,2013-04-22 04:12:00,
2013-04-21 21:23:00,42.0,41.0,-100.00,NNE,29,0.0,3.0,97,0.00,,,0.05,11.000000,,2013-04-22 04:23:00,
2013-04-21 21:32:00,42.0,41.0,-100.00,NNE,29,0.0,3.0,97,0.00,,,0.05,11.000000,,2013-04-22 04:32:00,
2013-04-21 21:53:00,40.0,39.0,-100.00,NNE,13,1.0,4.0,98,0.00,,,0.04,0.000000,,2013-04-22 04:53:00,
2013-04-21 22:02:00,40.0,39.0,-100.00,NNE,13,1.0,4.0,98,0.00,,,0.04,0.000000,,2013-04-22 05:02:00,
2013-04-21 22:11:00,40.0,39.0,-100.00,NNE,13,1.0,4.0,98,0.00,,,0.04,0.000000,,2013-04-22 05:11:00,
2013-04-21 22:22:00,40.0,39.0,-100.00,NNE,13,1.0,4.0,98,0.00,,,0.04,0.000000,,2013-04-22 05:22:00,
2013-04-21 22:32:00,40.0,39.0,-100.00,NNE,13,1.0,4.0,98,0.00,,,0.04,0.000000,,2013-04-22 05:32:00,
2013-04-21 22:52:00,38.0,38.0,-100.00,ESE,113,0.0,3.0,99,0.00,,,0.04,0.000000,,2013-04-22 05:52:00,
2013-04-21 23:02:00,38.0,38.0,-100.00,ESE,113,0.0,3.0,99,0.00,,,0.04,0.000000,,2013-04-22 06:02:00,
2013-04-21 23:12:00,38.0,38.0,-100.00,ESE,113,0.0,3.0,99,0.00,,,0.04,0.000000,,2013-04-22 06:12:00,
2013-04-21 23:21:00,38.0,38.0,-100.00,ESE,113,0.0,3.0,99,0.00,,,0.04,0.000000,,2013-04-22 06:21:00,
2013-04-21 23:32:00,38.0,38.0,-100.00,ESE,113,0.0,3.0,99,0.00,,,0.04,0.000000,,2013-04-22 06:32:00,
2013-04-21 23:52:00,36.0,36.0,-100.00,NE,56,0.0,2.0,99,0.00,,,0.04,0.000000,,2013-04-22 06:52:00,